createdAt,value
2017-06-28T00:00:57.241Z,0
2017-06-28T00:01:57.826Z,0
2017-06-28T00:02:57.527Z,0
2017-06-28T00:03:57.792Z,0
2017-06-28T00:04:57.789Z,0
2017-06-28T00:05:57.533Z,0
2017-06-28T00:06:57.459Z,0
2017-06-28T00:07:57.745Z,0
2017-06-28T00:08:57.111Z,0
2017-06-28T00:09:57.712Z,0
2017-06-28T00:10:57.831Z,0
2017-06-28T00:11:57.669Z,0
2017-06-28T00:12:57.801Z,0
2017-06-28T00:13:57.652Z,0
2017-06-28T00:14:57.448Z,0
2017-06-28T00:15:57.319Z,0
2017-06-28T00:16:57.012Z,0
2017-06-28T00:17:56.992Z,0
2017-06-28T00:18:57.589Z,0
2017-06-28T00:19:57.270Z,0
2017-06-28T00:20:57.562Z,0
2017-06-28T00:21:57.241Z,0
2017-06-28T00:22:57.555Z,0
2017-06-28T00:23:56.889Z,0
2017-06-28T00:24:57.516Z,0
2017-06-28T00:25:57.590Z,0
2017-06-28T00:26:57.546Z,0
2017-06-28T00:27:57.175Z,0
2017-06-28T00:28:57.121Z,0
2017-06-28T00:29:57.134Z,0
2017-06-28T00:30:57.402Z,0
2017-06-28T00:31:57.388Z,0
2017-06-28T00:32:56.772Z,0
2017-06-28T00:33:57.174Z,0
2017-06-28T00:34:57.358Z,0
2017-06-28T00:35:57.051Z,0
2017-06-28T00:36:57.006Z,0
2017-06-28T00:37:57.290Z,0
2017-06-28T00:38:57.391Z,0
2017-06-28T00:39:56.660Z,0
2017-06-28T00:40:57.250Z,0
2017-06-28T00:41:56.933Z,0
2017-06-28T00:42:57.241Z,0
2017-06-28T00:43:57.222Z,0
2017-06-28T00:44:57.302Z,0
2017-06-28T00:45:57.176Z,0
2017-06-28T00:46:56.870Z,0
2017-06-28T00:47:56.852Z,0
2017-06-28T00:48:57.181Z,0
2017-06-28T00:49:57.112Z,0
2017-06-28T00:50:57.121Z,0
2017-06-28T00:51:56.869Z,0
2017-06-28T00:52:56.782Z,0
2017-06-28T00:53:56.144Z,0
2017-06-28T00:54:56.751Z,0
2017-06-28T00:55:56.723Z,0
2017-06-28T00:56:57.052Z,0
2017-06-28T00:57:56.692Z,0
2017-06-28T00:58:56.403Z,0
2017-06-28T00:59:56.693Z,0
2017-06-28T01:00:56.352Z,0
2017-06-28T01:01:56.640Z,0
2017-06-28T01:02:56.013Z,0
2017-06-28T01:03:56.608Z,0
2017-06-28T01:04:55.987Z,0
2017-06-28T01:05:56.894Z,0
2017-06-28T01:06:56.563Z,0
2017-06-28T01:07:56.563Z,0
2017-06-28T01:08:56.856Z,0
2017-06-28T01:09:55.911Z,0
2017-06-28T01:10:56.506Z,0
2017-06-28T01:11:56.491Z,0
2017-06-28T01:12:56.183Z,0
2017-06-28T01:13:56.764Z,0
2017-06-28T01:14:56.442Z,0
2017-06-28T01:15:56.440Z,0
2017-06-28T01:16:56.723Z,0
2017-06-28T01:17:56.400Z,0
2017-06-28T01:18:56.091Z,0
2017-06-28T01:19:56.371Z,0
2017-06-28T01:20:56.060Z,0
2017-06-28T01:21:56.361Z,0
2017-06-28T01:22:56.331Z,0
2017-06-28T01:23:55.703Z,0
2017-06-28T01:24:56.293Z,0
2017-06-28T01:25:56.292Z,0
2017-06-28T01:26:56.274Z,0
2017-06-28T01:27:56.255Z,0
2017-06-28T01:28:56.242Z,0
2017-06-28T01:29:56.252Z,0
2017-06-28T01:30:56.224Z,0
2017-06-28T01:31:55.969Z,0
2017-06-28T01:32:56.170Z,0
2017-06-28T01:33:56.485Z,0
2017-06-28T01:34:56.461Z,0
2017-06-28T01:35:56.463Z,0
2017-06-28T01:36:56.427Z,0
2017-06-28T01:37:55.910Z,0
2017-06-28T01:38:55.819Z,0
2017-06-28T01:39:56.100Z,0
2017-06-28T01:40:55.900Z,0
2017-06-28T01:41:56.093Z,0
2017-06-28T01:42:56.163Z,0
2017-06-28T01:43:56.349Z,0
2017-06-28T01:44:55.720Z,0
2017-06-28T01:45:56.324Z,0
2017-06-28T01:46:55.973Z,0
2017-06-28T01:47:55.713Z,0
2017-06-28T01:48:55.630Z,0
2017-06-28T01:49:55.922Z,0
2017-06-28T01:50:55.702Z,0
2017-06-28T01:51:55.650Z,0
2017-06-28T01:52:55.280Z,0
2017-06-28T01:53:55.574Z,0
2017-06-28T01:54:55.840Z,0
2017-06-28T01:55:55.213Z,0
2017-06-28T01:56:56.238Z,0
2017-06-28T01:57:55.506Z,0
2017-06-28T01:58:55.489Z,0
2017-06-28T01:59:55.766Z,0
2017-06-28T02:00:55.461Z,0
2017-06-28T02:01:55.464Z,0
2017-06-28T02:02:55.429Z,0
2017-06-28T02:03:55.722Z,0
2017-06-28T02:04:55.711Z,0
2017-06-28T02:05:55.680Z,0
2017-06-28T02:06:55.378Z,0
2017-06-28T02:07:55.692Z,0
2017-06-28T02:08:55.356Z,0
2017-06-28T02:09:55.338Z,0
2017-06-28T02:10:55.934Z,0
2017-06-28T02:11:56.011Z,0
2017-06-28T02:12:55.616Z,0
2017-06-28T02:13:55.264Z,0
2017-06-28T02:14:55.252Z,0
2017-06-28T02:15:55.254Z,0
2017-06-28T02:16:55.522Z,0
2017-06-28T02:17:55.530Z,0
2017-06-28T02:18:55.844Z,0
2017-06-28T02:19:55.178Z,0
2017-06-28T02:20:55.791Z,0
2017-06-28T02:21:55.461Z,0
2017-06-28T02:22:55.142Z,0
2017-06-28T02:23:55.434Z,0
2017-06-28T02:24:55.771Z,0
2017-06-28T02:25:55.696Z,0
2017-06-28T02:26:55.682Z,0
2017-06-28T02:27:55.372Z,0
2017-06-28T02:28:55.041Z,0
2017-06-28T02:29:55.696Z,0
2017-06-28T02:30:55.339Z,0
2017-06-28T02:31:55.732Z,0
2017-06-28T02:32:54.982Z,0
2017-06-28T02:33:55.619Z,0
2017-06-28T02:34:55.324Z,0
2017-06-28T02:35:55.613Z,0
2017-06-28T02:36:55.241Z,0
2017-06-28T02:37:54.919Z,0
2017-06-28T02:38:55.501Z,0
2017-06-28T02:39:55.190Z,4
2017-06-28T02:40:55.174Z,4
2017-06-28T02:41:55.573Z,4
2017-06-28T02:42:54.833Z,4
2017-06-28T02:43:55.141Z,0
2017-06-28T02:44:55.436Z,4
2017-06-28T02:45:55.491Z,4
2017-06-28T02:46:55.381Z,4
2017-06-28T02:47:55.063Z,4
2017-06-28T02:48:55.379Z,4
2017-06-28T02:49:55.413Z,8
2017-06-28T02:50:55.350Z,8
2017-06-28T02:51:55.016Z,8
2017-06-28T02:52:55.308Z,8
2017-06-28T02:53:54.690Z,8
2017-06-28T02:54:55.282Z,8
2017-06-28T02:55:55.513Z,12
2017-06-28T02:56:55.254Z,12
2017-06-28T02:57:55.234Z,16
2017-06-28T02:58:55.232Z,12
2017-06-28T02:59:55.196Z,16
2017-06-28T03:00:54.860Z,16
2017-06-28T03:01:54.861Z,20
2017-06-28T03:02:55.142Z,20
2017-06-28T03:03:54.830Z,24
2017-06-28T03:04:54.505Z,20
2017-06-28T03:05:54.789Z,24
2017-06-28T03:06:54.163Z,24
2017-06-28T03:07:54.462Z,28
2017-06-28T03:08:55.060Z,28
2017-06-28T03:09:55.045Z,28
2017-06-28T03:10:55.015Z,32
2017-06-28T03:11:54.508Z,36
2017-06-28T03:12:55.013Z,32
2017-06-28T03:13:54.839Z,36
2017-06-28T03:14:54.662Z,40
2017-06-28T03:15:54.660Z,44
2017-06-28T03:16:54.961Z,48
2017-06-28T03:17:54.340Z,48
2017-06-28T03:18:54.908Z,52
2017-06-28T03:19:54.895Z,56
2017-06-28T03:20:54.874Z,64
2017-06-28T03:21:54.869Z,72
2017-06-28T03:22:54.840Z,76
2017-06-28T03:23:54.220Z,76
2017-06-28T03:24:54.203Z,80
2017-06-28T03:25:54.541Z,84
2017-06-28T03:26:54.490Z,88
2017-06-28T03:27:54.510Z,92
2017-06-28T03:28:54.482Z,96
2017-06-28T03:29:54.143Z,100
2017-06-28T03:30:54.170Z,100
2017-06-28T03:31:54.410Z,104
2017-06-28T03:32:54.399Z,104
2017-06-28T03:33:54.175Z,104
2017-06-28T03:34:54.678Z,104
2017-06-28T03:35:54.050Z,104
2017-06-28T03:36:53.722Z,104
2017-06-28T03:37:54.621Z,112
2017-06-28T03:38:54.005Z,120
2017-06-28T03:39:54.290Z,128
2017-06-28T03:40:54.030Z,136
2017-06-28T03:41:54.251Z,132
2017-06-28T03:42:53.962Z,124
2017-06-28T03:43:54.532Z,116
2017-06-28T03:44:54.552Z,104
2017-06-28T03:45:54.509Z,96
2017-06-28T03:46:53.889Z,92
2017-06-28T03:47:54.171Z,88
2017-06-28T03:48:53.914Z,84
2017-06-28T03:49:54.160Z,84
2017-06-28T03:50:54.137Z,88
2017-06-28T03:51:54.212Z,100
2017-06-28T03:52:53.798Z,108
2017-06-28T03:53:53.798Z,116
2017-06-28T03:54:54.488Z,108
2017-06-28T03:55:54.383Z,100
2017-06-28T03:56:54.086Z,92
2017-06-28T03:57:54.171Z,92
2017-06-28T03:58:54.336Z,96
2017-06-28T03:59:54.000Z,108
2017-06-28T04:00:53.672Z,120
2017-06-28T04:01:53.973Z,120
2017-06-28T04:02:53.991Z,120
2017-06-28T04:03:53.642Z,124
2017-06-28T04:04:54.247Z,140
2017-06-28T04:05:54.212Z,152
2017-06-28T04:06:54.219Z,164
2017-06-28T04:07:53.890Z,176
2017-06-28T04:08:54.174Z,184
2017-06-28T04:09:54.217Z,196
2017-06-28T04:10:54.199Z,212
2017-06-28T04:11:53.823Z,224
2017-06-28T04:12:54.107Z,244
2017-06-28T04:13:53.833Z,264
2017-06-28T04:14:53.463Z,284
2017-06-28T04:15:53.822Z,312
2017-06-28T04:16:53.445Z,352
2017-06-28T04:17:53.741Z,396
2017-06-28T04:18:54.083Z,460
2017-06-28T04:19:54.173Z,532
2017-06-28T04:20:54.138Z,612
2017-06-28T04:21:53.378Z,688
2017-06-28T04:22:53.662Z,756
2017-06-28T04:23:53.341Z,788
2017-06-28T04:24:53.320Z,800
2017-06-28T04:25:53.911Z,796
2017-06-28T04:26:53.597Z,784
2017-06-28T04:27:53.300Z,784
2017-06-28T04:28:53.570Z,792
2017-06-28T04:29:52.935Z,816
2017-06-28T04:30:53.559Z,856
2017-06-28T04:31:53.830Z,884
2017-06-28T04:32:53.225Z,896
2017-06-28T04:33:53.497Z,884
2017-06-28T04:34:53.491Z,892
2017-06-28T04:35:53.459Z,896
2017-06-28T04:36:53.139Z,872
2017-06-28T04:37:53.137Z,868
2017-06-28T04:38:53.428Z,840
2017-06-28T04:39:53.409Z,840
2017-06-28T04:40:53.110Z,824
2017-06-28T04:41:53.679Z,824
2017-06-28T04:42:53.061Z,844
2017-06-28T04:43:53.361Z,900
2017-06-28T04:44:53.339Z,972
2017-06-28T04:45:53.011Z,1032
2017-06-28T04:46:53.302Z,1076
2017-06-28T04:47:53.582Z,1088
2017-06-28T04:48:53.289Z,1060
2017-06-28T04:49:53.580Z,996
2017-06-28T04:50:53.240Z,928
2017-06-28T04:51:53.238Z,896
2017-06-28T04:52:53.533Z,896
2017-06-28T04:53:52.610Z,936
2017-06-28T04:54:52.880Z,992
2017-06-28T04:55:52.864Z,996
2017-06-28T04:56:52.841Z,960
2017-06-28T04:57:53.472Z,956
2017-06-28T04:58:52.826Z,932
2017-06-28T04:59:52.806Z,888
2017-06-28T05:00:53.113Z,868
2017-06-28T05:01:53.086Z,860
2017-06-28T05:02:53.070Z,876
2017-06-28T05:03:53.054Z,868
2017-06-28T05:04:53.064Z,856
2017-06-28T05:05:52.732Z,848
2017-06-28T05:06:53.020Z,864
2017-06-28T05:07:53.000Z,860
2017-06-28T05:08:52.978Z,844
2017-06-28T05:09:52.345Z,796
2017-06-28T05:10:52.952Z,752
2017-06-28T05:11:53.237Z,664
2017-06-28T05:12:52.934Z,588
2017-06-28T05:13:52.901Z,516
2017-06-28T05:14:52.641Z,480
2017-06-28T05:15:52.881Z,500
2017-06-28T05:16:53.159Z,544
2017-06-28T05:17:53.171Z,592
2017-06-28T05:18:53.172Z,620
2017-06-28T05:19:52.816Z,664
2017-06-28T05:20:52.821Z,684
2017-06-28T05:21:53.112Z,664
2017-06-28T05:22:53.070Z,680
2017-06-28T05:23:53.096Z,680
2017-06-28T05:24:53.052Z,632
2017-06-28T05:25:53.051Z,548
2017-06-28T05:26:53.022Z,460
2017-06-28T05:27:52.713Z,412
2017-06-28T05:28:52.992Z,392
2017-06-28T05:29:52.682Z,408
2017-06-28T05:30:52.978Z,456
2017-06-28T05:31:52.959Z,528
2017-06-28T05:32:52.935Z,652
2017-06-28T05:33:52.626Z,772
2017-06-28T05:34:52.635Z,844
2017-06-28T05:35:52.286Z,908
2017-06-28T05:36:52.677Z,1008
2017-06-28T05:37:52.899Z,1116
2017-06-28T05:38:52.650Z,1180
2017-06-28T05:39:52.874Z,1224
2017-06-28T05:40:52.525Z,1112
2017-06-28T05:41:52.543Z,960
2017-06-28T05:42:51.962Z,896
2017-06-28T05:43:52.765Z,860
2017-06-28T05:44:52.768Z,824
2017-06-28T05:45:52.121Z,744
2017-06-28T05:46:52.838Z,656
2017-06-28T05:47:52.805Z,592
2017-06-28T05:48:52.702Z,556
2017-06-28T05:49:52.709Z,544
2017-06-28T05:50:52.373Z,556
2017-06-28T05:51:52.731Z,544
2017-06-28T05:52:52.332Z,584
2017-06-28T05:53:52.331Z,580
2017-06-28T05:54:52.694Z,564
2017-06-28T05:55:52.595Z,568
2017-06-28T05:56:52.676Z,616
2017-06-28T05:57:51.973Z,684
2017-06-28T05:58:52.237Z,784
2017-06-28T05:59:51.941Z,908
2017-06-28T06:00:52.222Z,1084
2017-06-28T06:01:52.247Z,1300
2017-06-28T06:02:52.188Z,1568
2017-06-28T06:03:52.173Z,1844
2017-06-28T06:04:52.225Z,2112
2017-06-28T06:05:51.963Z,2436
2017-06-28T06:06:52.484Z,2828
2017-06-28T06:07:52.116Z,2984
2017-06-28T06:08:51.493Z,3120
2017-06-28T06:09:52.122Z,3368
2017-06-28T06:10:52.073Z,3632
2017-06-28T06:11:51.565Z,3704
2017-06-28T06:12:51.722Z,3668
2017-06-28T06:13:52.072Z,3756
2017-06-28T06:14:52.031Z,3860
2017-06-28T06:15:51.998Z,3924
2017-06-28T06:16:51.346Z,3984
2017-06-28T06:17:51.950Z,3988
2017-06-28T06:18:52.264Z,3944
2017-06-28T06:19:51.623Z,3884
2017-06-28T06:20:51.608Z,3744
2017-06-28T06:21:51.913Z,3580
2017-06-28T06:22:52.194Z,3432
2017-06-28T06:23:51.881Z,3232
2017-06-28T06:24:52.227Z,3024
2017-06-28T06:25:51.862Z,2624
2017-06-28T06:26:52.141Z,2292
2017-06-28T06:27:51.806Z,1988
2017-06-28T06:28:51.861Z,1784
2017-06-28T06:29:51.801Z,1836
2017-06-28T06:30:51.568Z,2048
2017-06-28T06:31:51.462Z,2340
2017-06-28T06:32:51.465Z,2716
2017-06-28T06:33:52.052Z,3096
2017-06-28T06:34:51.443Z,3144
2017-06-28T06:35:51.703Z,3036
2017-06-28T06:36:51.703Z,3040
2017-06-28T06:37:51.363Z,3080
2017-06-28T06:38:51.483Z,3068
2017-06-28T06:39:51.962Z,2980
2017-06-28T06:40:51.930Z,2956
2017-06-28T06:41:51.924Z,3112
2017-06-28T06:42:51.909Z,3176
2017-06-28T06:43:51.606Z,3152
2017-06-28T06:44:51.281Z,3156
2017-06-28T06:45:51.563Z,3084
2017-06-28T06:46:51.572Z,3012
2017-06-28T06:47:51.540Z,3004
2017-06-28T06:48:51.832Z,2968
2017-06-28T06:49:51.194Z,3036
2017-06-28T06:50:51.793Z,3256
2017-06-28T06:51:51.785Z,3432
2017-06-28T06:52:51.772Z,3564
2017-06-28T06:53:51.761Z,3584
2017-06-28T06:54:51.441Z,3752
2017-06-28T06:55:51.423Z,4360
2017-06-28T06:56:51.741Z,4840
2017-06-28T06:57:51.705Z,5036
2017-06-28T06:58:51.684Z,5064
2017-06-28T06:59:51.671Z,5020
2017-06-28T07:00:51.681Z,4980
2017-06-28T07:01:51.452Z,4808
2017-06-28T07:02:51.012Z,4636
2017-06-28T07:03:51.617Z,4560
2017-06-28T07:04:51.617Z,4488
2017-06-28T07:05:51.602Z,4484
2017-06-28T07:06:51.261Z,4496
2017-06-28T07:07:51.261Z,4440
2017-06-28T07:08:50.928Z,4300
2017-06-28T07:09:50.633Z,4028
2017-06-28T07:10:51.214Z,3652
2017-06-28T07:11:51.523Z,3800
2017-06-28T07:12:51.182Z,3624
2017-06-28T07:13:51.172Z,3720
2017-06-28T07:14:51.172Z,4188
2017-06-28T07:15:51.165Z,4472
2017-06-28T07:16:51.439Z,5004
2017-06-28T07:17:51.127Z,5104
2017-06-28T07:18:50.862Z,4964
2017-06-28T07:19:51.553Z,4728
2017-06-28T07:20:51.105Z,4728
2017-06-28T07:21:51.239Z,4644
2017-06-28T07:22:50.770Z,4892
2017-06-28T07:23:51.042Z,4964
2017-06-28T07:24:50.732Z,4912
2017-06-28T07:25:50.722Z,4392
2017-06-28T07:26:50.694Z,3776
2017-06-28T07:27:51.106Z,3336
2017-06-28T07:28:50.681Z,3136
2017-06-28T07:29:50.337Z,3156
2017-06-28T07:30:50.933Z,3316
2017-06-28T07:31:50.685Z,3536
2017-06-28T07:32:51.229Z,3904
2017-06-28T07:33:51.234Z,3776
2017-06-28T07:34:50.572Z,3528
2017-06-28T07:35:50.882Z,3236
2017-06-28T07:36:50.562Z,3236
2017-06-28T07:37:50.889Z,3312
2017-06-28T07:38:50.852Z,3124
2017-06-28T07:39:50.892Z,2824
2017-06-28T07:40:50.881Z,2632
2017-06-28T07:41:50.824Z,2524
2017-06-28T07:42:50.505Z,2656
2017-06-28T07:43:50.763Z,2844
2017-06-28T07:44:50.471Z,2932
2017-06-28T07:45:50.450Z,2964
2017-06-28T07:46:50.732Z,2984
2017-06-28T07:47:50.721Z,2696
2017-06-28T07:48:50.414Z,2556
2017-06-28T07:49:50.405Z,2528
2017-06-28T07:50:50.701Z,2488
2017-06-28T07:51:51.021Z,2552
2017-06-28T07:52:50.652Z,2632
2017-06-28T07:53:50.635Z,2732
2017-06-28T07:54:50.682Z,3124
2017-06-28T07:55:50.939Z,3632
2017-06-28T07:56:50.911Z,3840
2017-06-28T07:57:50.593Z,4152
2017-06-28T07:58:50.626Z,4208
2017-06-28T07:59:50.569Z,4504
2017-06-28T08:00:50.880Z,4740
2017-06-28T08:01:50.850Z,4596
2017-06-28T08:02:50.545Z,4244
2017-06-28T08:03:50.533Z,3876
2017-06-28T08:04:50.499Z,3612
2017-06-28T08:05:50.821Z,3416
2017-06-28T08:06:50.478Z,3256
2017-06-28T08:07:50.479Z,3164
2017-06-28T08:08:50.760Z,3132
2017-06-28T08:09:50.126Z,3128
2017-06-28T08:10:50.418Z,3148
2017-06-28T08:11:50.729Z,3176
2017-06-28T08:12:50.405Z,3260
2017-06-28T08:13:50.728Z,3324
2017-06-28T08:14:50.370Z,3336
2017-06-28T08:15:50.088Z,3400
2017-06-28T08:16:50.658Z,3468
2017-06-28T08:17:50.330Z,3540
2017-06-28T08:18:50.337Z,3636
2017-06-28T08:19:50.624Z,3696
2017-06-28T08:20:50.290Z,3588
2017-06-28T08:21:50.609Z,3396
2017-06-28T08:22:50.579Z,3196
2017-06-28T08:23:50.291Z,3112
2017-06-28T08:24:50.581Z,3136
2017-06-28T08:25:50.554Z,3196
2017-06-28T08:26:50.531Z,3276
2017-06-28T08:27:50.524Z,3324
2017-06-28T08:28:50.553Z,3340
2017-06-28T08:29:50.185Z,3348
2017-06-28T08:30:50.477Z,3352
2017-06-28T08:31:50.152Z,3396
2017-06-28T08:32:50.465Z,3472
2017-06-28T08:33:50.587Z,3576
2017-06-28T08:34:50.444Z,3680
2017-06-28T08:35:50.422Z,3804
2017-06-28T08:36:50.544Z,3960
2017-06-28T08:37:50.229Z,4148
2017-06-28T08:38:50.407Z,4348
2017-06-28T08:39:50.200Z,4672
2017-06-28T08:40:50.465Z,4960
2017-06-28T08:41:50.041Z,5044
2017-06-28T08:42:50.118Z,5088
2017-06-28T08:43:49.710Z,4940
2017-06-28T08:44:50.010Z,4740
2017-06-28T08:45:50.362Z,4956
2017-06-28T08:46:50.302Z,5316
2017-06-28T08:47:50.282Z,5744
2017-06-28T08:48:49.951Z,6184
2017-06-28T08:49:50.256Z,6676
2017-06-28T08:50:50.285Z,6912
2017-06-28T08:51:49.904Z,7024
2017-06-28T08:52:49.595Z,6952
2017-06-28T08:53:49.883Z,6988
2017-06-28T08:54:49.582Z,7388
2017-06-28T08:55:50.174Z,7776
2017-06-28T08:56:49.850Z,8608
2017-06-28T08:57:49.850Z,8192
2017-06-28T08:58:49.518Z,7240
2017-06-28T08:59:50.110Z,6152
2017-06-28T09:00:50.141Z,5588
2017-06-28T09:01:50.102Z,5352
2017-06-28T09:02:50.087Z,5364
2017-06-28T09:03:50.154Z,5756
2017-06-28T09:04:50.141Z,6044
2017-06-28T09:05:49.733Z,6660
2017-06-28T09:06:50.022Z,7212
2017-06-28T09:07:50.024Z,8168
2017-06-28T09:08:50.101Z,9036
2017-06-28T09:09:49.992Z,9596
2017-06-28T09:10:49.987Z,10208
2017-06-28T09:11:50.021Z,11848
2017-06-28T09:12:49.970Z,14168
2017-06-28T09:13:49.350Z,16608
2017-06-28T09:14:49.944Z,16992
2017-06-28T09:15:49.930Z,11780
2017-06-28T09:16:49.310Z,8620
2017-06-28T09:17:49.902Z,7336
2017-06-28T09:18:49.612Z,7056
2017-06-28T09:19:49.281Z,7276
2017-06-28T09:20:49.282Z,7652
2017-06-28T09:21:49.572Z,8176
2017-06-28T09:22:49.248Z,7232
2017-06-28T09:23:49.859Z,8400
2017-06-28T09:24:49.833Z,8332
2017-06-28T09:25:49.829Z,7880
2017-06-28T09:26:49.501Z,8748
2017-06-28T09:27:49.512Z,11988
2017-06-28T09:28:49.500Z,22560
2017-06-28T09:29:49.479Z,16768
2017-06-28T09:30:49.775Z,12828
2017-06-28T09:31:49.173Z,12264
2017-06-28T09:32:49.139Z,14212
2017-06-28T09:33:49.449Z,37696
2017-06-28T09:34:49.806Z,47904
2017-06-28T09:35:49.150Z,29184
2017-06-28T09:36:49.726Z,10648
2017-06-28T09:37:49.414Z,14132
2017-06-28T09:38:49.393Z,4684
2017-06-28T09:39:49.701Z,3828
2017-06-28T09:40:49.357Z,3872
2017-06-28T09:41:49.038Z,3972
2017-06-28T09:42:49.347Z,3496
2017-06-28T09:43:49.418Z,3608
2017-06-28T09:44:49.628Z,3728
2017-06-28T09:45:49.105Z,3900
2017-06-28T09:46:48.999Z,4212
2017-06-28T09:47:49.610Z,4688
2017-06-28T09:48:49.289Z,5220
2017-06-28T09:49:49.643Z,5808
2017-06-28T09:50:48.949Z,6392
2017-06-28T09:51:48.958Z,7056
2017-06-28T09:52:49.541Z,6352
2017-06-28T09:53:49.246Z,10024
2017-06-28T09:54:49.237Z,4720
2017-06-28T09:55:49.539Z,4440
2017-06-28T09:56:49.444Z,4960
2017-06-28T09:57:49.192Z,4512
2017-06-28T09:58:49.509Z,3796
2017-06-28T09:59:49.174Z,3928
2017-06-28T10:00:49.134Z,4740
2017-06-28T10:01:49.456Z,4376
2017-06-28T10:02:48.836Z,4348
2017-06-28T10:03:49.459Z,3872
2017-06-28T10:04:49.430Z,3444
2017-06-28T10:05:49.111Z,3152
2017-06-28T10:06:49.101Z,2908
2017-06-28T10:07:49.082Z,2972
2017-06-28T10:08:48.770Z,3332
2017-06-28T10:09:49.361Z,3232
2017-06-28T10:10:48.750Z,2836
2017-06-28T10:11:49.038Z,2864
2017-06-28T10:12:49.010Z,2864
2017-06-28T10:13:49.325Z,2572
2017-06-28T10:14:49.350Z,2364
2017-06-28T10:15:49.012Z,2184
2017-06-28T10:16:48.702Z,2084
2017-06-28T10:17:48.997Z,1880
2017-06-28T10:18:48.974Z,1820
2017-06-28T10:19:49.240Z,1804
2017-06-28T10:20:49.230Z,1824
2017-06-28T10:21:49.234Z,1800
2017-06-28T10:22:48.910Z,1604
2017-06-28T10:23:48.899Z,1424
2017-06-28T10:24:48.589Z,1196
2017-06-28T10:25:48.580Z,1016
2017-06-28T10:26:49.188Z,904
2017-06-28T10:27:48.938Z,752
2017-06-28T10:28:49.180Z,704
2017-06-28T10:29:49.150Z,728
2017-06-28T10:30:49.137Z,820
2017-06-28T10:31:48.505Z,936
2017-06-28T10:32:48.489Z,1120
2017-06-28T10:33:49.120Z,1308
2017-06-28T10:34:48.772Z,1464
2017-06-28T10:35:48.451Z,1460
2017-06-28T10:36:48.429Z,1396
2017-06-28T10:37:48.111Z,1316
2017-06-28T10:38:48.430Z,1292
2017-06-28T10:39:49.042Z,1240
2017-06-28T10:40:49.120Z,1312
2017-06-28T10:41:49.098Z,1564
2017-06-28T10:42:48.991Z,1756
2017-06-28T10:43:48.686Z,1884
2017-06-28T10:44:49.009Z,1904
2017-06-28T10:45:48.639Z,1728
2017-06-28T10:46:48.676Z,1648
2017-06-28T10:47:48.338Z,1568
2017-06-28T10:48:48.928Z,1392
2017-06-28T10:49:48.309Z,1236
2017-06-28T10:50:48.896Z,1104
2017-06-28T10:51:48.568Z,1048
2017-06-28T10:52:48.566Z,1040
2017-06-28T10:53:48.860Z,1052
2017-06-28T10:54:48.539Z,1072
2017-06-28T10:55:48.241Z,1052
2017-06-28T10:56:48.527Z,1032
2017-06-28T10:57:48.821Z,1032
2017-06-28T10:58:48.849Z,1040
2017-06-28T10:59:48.764Z,1004
2017-06-28T11:00:48.160Z,964
2017-06-28T11:01:48.448Z,956
2017-06-28T11:02:48.121Z,956
2017-06-28T11:03:48.121Z,948
2017-06-28T11:04:48.441Z,916
2017-06-28T11:05:48.421Z,848
2017-06-28T11:06:48.675Z,780
2017-06-28T11:07:48.674Z,764
2017-06-28T11:08:48.677Z,800
2017-06-28T11:09:48.353Z,852
2017-06-28T11:10:48.112Z,892
2017-06-28T11:11:48.626Z,916
2017-06-28T11:12:48.615Z,944
2017-06-28T11:13:48.597Z,996
2017-06-28T11:14:48.578Z,1060
2017-06-28T11:15:47.960Z,1112
2017-06-28T11:16:48.238Z,1180
2017-06-28T11:17:48.538Z,1216
2017-06-28T11:18:48.233Z,1272
2017-06-28T11:19:48.201Z,1352
2017-06-28T11:20:48.225Z,1464
2017-06-28T11:21:47.868Z,1576
2017-06-28T11:22:47.924Z,1696
2017-06-28T11:23:48.450Z,1816
2017-06-28T11:24:47.847Z,1888
2017-06-28T11:25:48.110Z,1928
2017-06-28T11:26:48.398Z,1952
2017-06-28T11:27:48.101Z,2008
2017-06-28T11:28:48.398Z,2092
2017-06-28T11:29:48.364Z,2212
2017-06-28T11:30:48.101Z,2296
2017-06-28T11:31:48.076Z,2352
2017-06-28T11:32:48.041Z,2384
2017-06-28T11:33:48.338Z,2376
2017-06-28T11:34:48.303Z,2348
2017-06-28T11:35:48.301Z,2348
2017-06-28T11:36:48.299Z,2336
2017-06-28T11:37:48.289Z,2272
2017-06-28T11:38:48.276Z,2180
2017-06-28T11:39:48.256Z,2204
2017-06-28T11:40:48.229Z,2328
2017-06-28T11:41:48.232Z,2456
2017-06-28T11:42:48.200Z,2580
2017-06-28T11:43:48.201Z,2640
2017-06-28T11:44:48.199Z,2800
2017-06-28T11:45:48.210Z,2948
2017-06-28T11:46:48.181Z,3020
2017-06-28T11:47:48.152Z,3020
2017-06-28T11:48:47.805Z,2996
2017-06-28T11:49:48.140Z,2940
2017-06-28T11:50:48.111Z,2868
2017-06-28T11:51:48.174Z,2764
2017-06-28T11:52:48.099Z,2704
2017-06-28T11:53:48.109Z,2628
2017-06-28T11:54:48.063Z,2604
2017-06-28T11:55:48.088Z,2644
2017-06-28T11:56:48.054Z,2788
2017-06-28T11:57:48.024Z,2960
2017-06-28T11:58:48.022Z,3184
2017-06-28T11:59:47.975Z,3336
2017-06-28T12:00:47.678Z,3416
2017-06-28T12:01:47.971Z,3428
2017-06-28T12:02:48.051Z,3416
2017-06-28T12:03:47.613Z,3396
2017-06-28T12:04:47.606Z,3360
2017-06-28T12:05:47.598Z,3292
2017-06-28T12:06:47.570Z,3200
2017-06-28T12:07:47.865Z,3076
2017-06-28T12:08:47.859Z,2940
2017-06-28T12:09:47.597Z,2792
2017-06-28T12:10:47.919Z,2656
2017-06-28T12:11:47.898Z,2552
2017-06-28T12:12:47.489Z,2496
2017-06-28T12:13:47.289Z,2440
2017-06-28T12:14:47.826Z,2428
2017-06-28T12:15:47.145Z,2420
2017-06-28T12:16:47.749Z,2408
2017-06-28T12:17:47.748Z,2376
2017-06-28T12:18:47.734Z,2356
2017-06-28T12:19:47.499Z,2404
2017-06-28T12:20:47.719Z,2428
2017-06-28T12:21:47.740Z,2452
2017-06-28T12:22:47.700Z,2464
2017-06-28T12:23:47.652Z,2464
2017-06-28T12:24:47.649Z,2472
2017-06-28T12:25:47.647Z,2512
2017-06-28T12:26:47.299Z,2548
2017-06-28T12:27:47.289Z,2588
2017-06-28T12:28:47.597Z,2648
2017-06-28T12:29:46.959Z,2704
2017-06-28T12:30:47.280Z,2760
2017-06-28T12:31:47.570Z,2864
2017-06-28T12:32:47.540Z,2960
2017-06-28T12:33:47.549Z,3052
2017-06-28T12:34:47.218Z,3136
2017-06-28T12:35:47.199Z,3188
2017-06-28T12:36:47.499Z,3200
2017-06-28T12:37:47.178Z,3192
2017-06-28T12:38:47.160Z,3180
2017-06-28T12:39:47.148Z,3160
2017-06-28T12:40:46.945Z,3152
2017-06-28T12:41:47.118Z,3144
2017-06-28T12:42:47.099Z,3112
2017-06-28T12:43:47.089Z,3084
2017-06-28T12:44:47.099Z,3044
2017-06-28T12:45:47.378Z,2996
2017-06-28T12:46:47.049Z,2936
2017-06-28T12:47:47.038Z,2876
2017-06-28T12:48:47.351Z,2800
2017-06-28T12:49:46.719Z,2732
2017-06-28T12:50:47.299Z,2652
2017-06-28T12:51:46.986Z,2592
2017-06-28T12:52:47.291Z,2560
2017-06-28T12:53:47.288Z,2528
2017-06-28T12:54:47.259Z,2504
2017-06-28T12:55:47.249Z,2452
2017-06-28T12:56:46.916Z,2412
2017-06-28T12:57:46.956Z,2816
2017-06-28T12:58:46.681Z,2912
2017-06-28T12:59:46.900Z,2912
2017-06-28T13:00:46.861Z,2888
2017-06-28T13:01:47.171Z,2872
2017-06-28T13:02:46.581Z,2840
2017-06-28T13:03:47.149Z,2800
2017-06-28T13:04:47.139Z,2756
2017-06-28T13:05:47.101Z,2716
2017-06-28T13:06:47.121Z,2680
2017-06-28T13:07:46.878Z,2656
2017-06-28T13:08:47.101Z,2636
2017-06-28T13:09:47.180Z,2636
2017-06-28T13:10:47.069Z,2636
2017-06-28T13:11:46.720Z,2636
2017-06-28T13:12:47.060Z,2680
2017-06-28T13:13:46.451Z,2764
2017-06-28T13:14:46.401Z,2820
2017-06-28T13:15:46.807Z,2864
2017-06-28T13:16:46.682Z,2872
2017-06-28T13:17:46.951Z,2916
2017-06-28T13:18:47.022Z,2996
2017-06-28T13:19:46.633Z,3064
2017-06-28T13:20:46.600Z,3040
2017-06-28T13:21:46.986Z,3116
2017-06-28T13:22:46.671Z,3116
2017-06-28T13:23:46.897Z,3108
2017-06-28T13:24:46.917Z,3120
2017-06-28T13:25:46.844Z,3140
2017-06-28T13:26:46.906Z,3192
2017-06-28T13:27:46.602Z,3228
2017-06-28T13:28:46.892Z,3244
2017-06-28T13:29:46.512Z,3256
2017-06-28T13:30:46.824Z,3256
2017-06-28T13:31:46.834Z,3236
2017-06-28T13:32:46.463Z,3220
2017-06-28T13:33:46.452Z,3212
2017-06-28T13:34:46.863Z,3184
2017-06-28T13:35:46.432Z,3164
2017-06-28T13:36:46.401Z,3192
2017-06-28T13:37:46.805Z,3204
2017-06-28T13:38:46.404Z,3220
2017-06-28T13:39:46.705Z,3296
2017-06-28T13:40:46.065Z,3380
2017-06-28T13:41:46.333Z,3456
2017-06-28T13:42:46.635Z,3488
2017-06-28T13:43:46.314Z,3560